KKP100 NWWW-YBBN
Flight info
| Callsign | KKP100 |
|---|---|
| Flight time | 2h 24m |
| Altitude | 30000 |
| Route | NISAS3W NISAS DCT TEBUR DCT 25S160E DCT BONEY G329 UGTUG |
| Aircraft | A321/M-SDE3FGHIRWY/LB1 |
Departure
| Time | 2026-04-19 00:40 |
|---|---|
| Airport | La Tontouta International Airport (NWWW) |
Arrival
| Time | 2026-04-19 03:04 |
|---|---|
| Airport | Brisbane International Airport (YBBN) |
| Time | Latitude | Longitude | Altitude | Speed | Heading |
|---|---|---|---|---|---|
| 2026-04-19 00:00 | -22.01416 | 166.21658 | 55 ft | 0 kts | 31° |
| 2026-04-19 00:31 | -22.01425 | 166.21652 | 53 ft | 3 kts | 31° |
| 2026-04-19 00:31 | -22.01449 | 166.21637 | 53 ft | 3 kts | 31° |
| 2026-04-19 00:32 | -22.01469 | 166.21623 | 54 ft | 3 kts | 43° |
| 2026-04-19 00:32 | -22.01480 | 166.21603 | 55 ft | 3 kts | 99° |
| 2026-04-19 00:32 | -22.01472 | 166.21579 | 54 ft | 1 kts | 121° |
| 2026-04-19 00:32 | -22.01469 | 166.21575 | 54 ft | 0 kts | 121° |
| 2026-04-19 00:35 | -22.01472 | 166.21579 | 54 ft | 2 kts | 121° |
| 2026-04-19 00:35 | -22.01484 | 166.21602 | 53 ft | 5 kts | 121° |
| 2026-04-19 00:36 | -22.01504 | 166.21637 | 55 ft | 6 kts | 121° |
| 2026-04-19 00:36 | -22.01535 | 166.21663 | 53 ft | 5 kts | 170° |
| 2026-04-19 00:36 | -22.01580 | 166.21650 | 55 ft | 10 kts | 203° |
| 2026-04-19 00:36 | -22.01647 | 166.21654 | 57 ft | 12 kts | 137° |
| 2026-04-19 00:37 | -22.01697 | 166.21733 | 56 ft | 13 kts | 122° |
| 2026-04-19 00:37 | -22.01775 | 166.21869 | 59 ft | 30 kts | 121° |
| 2026-04-19 00:37 | -22.01912 | 166.22111 | 55 ft | 43 kts | 121° |
| 2026-04-19 00:37 | -22.02060 | 166.22378 | 50 ft | 37 kts | 121° |
| 2026-04-19 00:38 | -22.02161 | 166.22567 | 54 ft | 21 kts | 99° |
| 2026-04-19 00:38 | -22.02186 | 166.22641 | 51 ft | 8 kts | 176° |
| 2026-04-19 00:38 | -22.02191 | 166.22609 | 57 ft | 5 kts | 295° |
| 2026-04-19 00:38 | -22.02189 | 166.22604 | 57 ft | 0 kts | 298° |
| 2026-04-19 00:39 | -22.02144 | 166.22523 | 54 ft | 42 kts | 301° |
| 2026-04-19 00:39 | -22.01873 | 166.22046 | 55 ft | 105 kts | 301° |
| 2026-04-19 00:39 | -22.01401 | 166.21204 | 54 ft | 156 kts | 301° |
| 2026-04-19 00:40 | -22.00778 | 166.20126 | 283 ft | 178 kts | 302° |
| 2026-04-19 00:40 | -22.00146 | 166.18991 | 1062 ft | 174 kts | 300° |
| 2026-04-19 00:40 | -21.99650 | 166.17824 | 1679 ft | 168 kts | 281° |
| 2026-04-19 00:40 | -21.99628 | 166.16593 | 2127 ft | 165 kts | 257° |
| 2026-04-19 00:41 | -22.00093 | 166.15451 | 2490 ft | 171 kts | 231° |
| 2026-04-19 00:41 | -22.01020 | 166.14593 | 2741 ft | 186 kts | 210° |
| 2026-04-19 00:41 | -22.02192 | 166.13843 | 2865 ft | 207 kts | 211° |
| 2026-04-19 00:41 | -22.03504 | 166.13000 | 3021 ft | 232 kts | 211° |
| 2026-04-19 00:42 | -22.04882 | 166.11953 | 3225 ft | 253 kts | 226° |
| 2026-04-19 00:42 | -22.05866 | 166.10345 | 3698 ft | 261 kts | 243° |
| 2026-04-19 00:42 | -22.06673 | 166.08580 | 4355 ft | 264 kts | 244° |
| 2026-04-19 00:42 | -22.07483 | 166.06810 | 5041 ft | 265 kts | 244° |
| 2026-04-19 00:43 | -22.08293 | 166.05038 | 5732 ft | 265 kts | 244° |
| 2026-04-19 00:43 | -22.09116 | 166.03242 | 6424 ft | 266 kts | 244° |
| 2026-04-19 00:43 | -22.09935 | 166.01456 | 7042 ft | 267 kts | 244° |
| 2026-04-19 00:43 | -22.10761 | 165.99658 | 7657 ft | 267 kts | 245° |
| 2026-04-19 00:44 | -22.11585 | 165.97859 | 8274 ft | 268 kts | 245° |
| 2026-04-19 00:44 | -22.12413 | 165.96049 | 8885 ft | 270 kts | 245° |
| 2026-04-19 00:44 | -22.13243 | 165.94233 | 9482 ft | 271 kts | 245° |
| 2026-04-19 00:44 | -22.14085 | 165.92412 | 10047 ft | 272 kts | 245° |
| 2026-04-19 00:45 | -22.14962 | 165.90541 | 10262 ft | 288 kts | 245° |
| 2026-04-19 00:45 | -22.15895 | 165.88556 | 10378 ft | 306 kts | 245° |
| 2026-04-19 00:45 | -22.16885 | 165.86451 | 10507 ft | 323 kts | 245° |
| 2026-04-19 00:45 | -22.17928 | 165.84238 | 10625 ft | 339 kts | 245° |
| 2026-04-19 00:46 | -22.19017 | 165.81921 | 10748 ft | 354 kts | 245° |
| 2026-04-19 00:46 | -22.20145 | 165.79515 | 11023 ft | 362 kts | 245° |
| 2026-04-19 00:46 | -22.21288 | 165.77078 | 11500 ft | 365 kts | 245° |
| 2026-04-19 00:46 | -22.22441 | 165.74623 | 12003 ft | 368 kts | 245° |
| 2026-04-19 00:47 | -22.23602 | 165.72157 | 12547 ft | 370 kts | 245° |
| 2026-04-19 00:47 | -22.24769 | 165.69673 | 13082 ft | 372 kts | 245° |
| 2026-04-19 00:47 | -22.25942 | 165.67170 | 13628 ft | 374 kts | 245° |
| 2026-04-19 00:47 | -22.27122 | 165.64651 | 14112 ft | 377 kts | 245° |
| 2026-04-19 00:48 | -22.28308 | 165.62121 | 14586 ft | 379 kts | 245° |
| 2026-04-19 00:48 | -22.29503 | 165.59571 | 15060 ft | 382 kts | 246° |
| 2026-04-19 00:48 | -22.30704 | 165.57004 | 15541 ft | 384 kts | 246° |
| 2026-04-19 00:48 | -22.31912 | 165.54419 | 16015 ft | 386 kts | 246° |
| 2026-04-19 00:49 | -22.33109 | 165.51854 | 16473 ft | 388 kts | 246° |
| 2026-04-19 00:49 | -22.34326 | 165.49240 | 16922 ft | 391 kts | 246° |
| 2026-04-19 00:49 | -22.35551 | 165.46610 | 17370 ft | 393 kts | 246° |
| 2026-04-19 00:49 | -22.36779 | 165.43969 | 17797 ft | 395 kts | 246° |
| 2026-04-19 00:50 | -22.38014 | 165.41314 | 18213 ft | 397 kts | 247° |
| 2026-04-19 00:50 | -22.39256 | 165.38641 | 18573 ft | 398 kts | 247° |
| 2026-04-19 00:50 | -22.40502 | 165.35962 | 18944 ft | 400 kts | 247° |
| 2026-04-19 00:50 | -22.41753 | 165.33275 | 19315 ft | 400 kts | 247° |
| 2026-04-19 00:51 | -22.43007 | 165.30581 | 19680 ft | 401 kts | 247° |
| 2026-04-19 00:51 | -22.44259 | 165.27885 | 20042 ft | 402 kts | 247° |
| 2026-04-19 00:51 | -22.45516 | 165.25178 | 20395 ft | 403 kts | 248° |
| 2026-04-19 00:51 | -22.46776 | 165.22460 | 20735 ft | 404 kts | 248° |
| 2026-04-19 00:52 | -22.48036 | 165.19743 | 21068 ft | 405 kts | 248° |
| 2026-04-19 00:52 | -22.49299 | 165.17015 | 21402 ft | 406 kts | 248° |
| 2026-04-19 00:52 | -22.50567 | 165.14279 | 21725 ft | 407 kts | 248° |
| 2026-04-19 00:52 | -22.51837 | 165.11538 | 22051 ft | 409 kts | 248° |
| 2026-04-19 00:53 | -22.53110 | 165.08787 | 22357 ft | 410 kts | 248° |
| 2026-04-19 00:53 | -22.54387 | 165.06024 | 22652 ft | 411 kts | 248° |
| 2026-04-19 00:53 | -22.55668 | 165.03251 | 22962 ft | 413 kts | 248° |
| 2026-04-19 00:53 | -22.56952 | 165.00469 | 23253 ft | 414 kts | 248° |
| 2026-04-19 00:54 | -22.58242 | 164.97677 | 23529 ft | 416 kts | 248° |
| 2026-04-19 00:54 | -22.59538 | 164.94876 | 23761 ft | 417 kts | 248° |
| 2026-04-19 00:54 | -22.60820 | 164.92101 | 23988 ft | 418 kts | 248° |
| 2026-04-19 00:54 | -22.62119 | 164.89279 | 24211 ft | 420 kts | 248° |
| 2026-04-19 00:55 | -22.63422 | 164.86447 | 24446 ft | 421 kts | 248° |
| 2026-04-19 00:55 | -22.64730 | 164.83604 | 24672 ft | 422 kts | 249° |
| 2026-04-19 00:55 | -22.66040 | 164.80747 | 24905 ft | 424 kts | 249° |
| 2026-04-19 00:55 | -22.67351 | 164.77885 | 25137 ft | 425 kts | 249° |
| 2026-04-19 00:56 | -22.68667 | 164.75015 | 25378 ft | 426 kts | 249° |
| 2026-04-19 00:56 | -22.69990 | 164.72131 | 25603 ft | 428 kts | 249° |
| 2026-04-19 00:56 | -22.71312 | 164.69246 | 25836 ft | 429 kts | 249° |
| 2026-04-19 00:56 | -22.72642 | 164.66349 | 26079 ft | 429 kts | 249° |
| 2026-04-19 00:57 | -22.73972 | 164.63457 | 26398 ft | 428 kts | 249° |
| 2026-04-19 00:57 | -22.75294 | 164.60579 | 26722 ft | 426 kts | 249° |
| 2026-04-19 00:57 | -22.76185 | 164.58636 | 26937 ft | 425 kts | 249° |
| 2026-04-19 00:57 | -22.77928 | 164.54843 | 27363 ft | 424 kts | 249° |
| 2026-04-19 00:58 | -22.78813 | 164.52915 | 27579 ft | 423 kts | 249° |
| 2026-04-19 00:58 | -22.80123 | 164.50063 | 27888 ft | 422 kts | 250° |
| 2026-04-19 00:58 | -22.81841 | 164.46302 | 28310 ft | 420 kts | 250° |
| 2026-04-19 00:58 | -22.82698 | 164.44419 | 28515 ft | 419 kts | 250° |
| 2026-04-19 00:59 | -22.83961 | 164.41642 | 28826 ft | 418 kts | 250° |
| 2026-04-19 00:59 | -22.85243 | 164.38824 | 29141 ft | 417 kts | 250° |
| 2026-04-19 00:59 | -22.86525 | 164.36011 | 29453 ft | 416 kts | 250° |
| 2026-04-19 00:59 | -22.87810 | 164.33199 | 29765 ft | 415 kts | 250° |
| 2026-04-19 01:00 | -22.89086 | 164.30404 | 30057 ft | 413 kts | 250° |
| 2026-04-19 01:00 | -22.90360 | 164.27607 | 30324 ft | 412 kts | 250° |
| 2026-04-19 01:00 | -22.91623 | 164.24829 | 30599 ft | 410 kts | 250° |
| 2026-04-19 01:00 | -22.92877 | 164.22056 | 30880 ft | 408 kts | 250° |
| 2026-04-19 01:01 | -22.94121 | 164.19295 | 31174 ft | 406 kts | 250° |
| 2026-04-19 01:01 | -22.95358 | 164.16553 | 31462 ft | 403 kts | 250° |
| 2026-04-19 01:01 | -22.96587 | 164.13828 | 31763 ft | 401 kts | 250° |
| 2026-04-19 01:01 | -22.97812 | 164.11114 | 32054 ft | 399 kts | 249° |
| 2026-04-19 01:02 | -22.99028 | 164.08418 | 32344 ft | 397 kts | 249° |
| 2026-04-19 01:02 | -23.00237 | 164.05738 | 32651 ft | 394 kts | 249° |
| 2026-04-19 01:02 | -23.01437 | 164.03071 | 32931 ft | 392 kts | 249° |
| 2026-04-19 01:02 | -23.02629 | 164.00420 | 33212 ft | 390 kts | 249° |
| 2026-04-19 01:03 | -23.03811 | 163.97788 | 33495 ft | 387 kts | 249° |
| 2026-04-19 01:03 | -23.04991 | 163.95162 | 33785 ft | 385 kts | 249° |
| 2026-04-19 01:03 | -23.06158 | 163.92559 | 34054 ft | 383 kts | 249° |
| 2026-04-19 01:03 | -23.07322 | 163.89967 | 34285 ft | 381 kts | 249° |
| 2026-04-19 01:04 | -23.08482 | 163.87384 | 34500 ft | 379 kts | 249° |
| 2026-04-19 01:04 | -23.09631 | 163.84813 | 34702 ft | 378 kts | 249° |
| 2026-04-19 01:04 | -23.10779 | 163.82248 | 34891 ft | 377 kts | 249° |
| 2026-04-19 01:04 | -23.11924 | 163.79691 | 35082 ft | 376 kts | 249° |
| 2026-04-19 01:05 | -23.13069 | 163.77134 | 35263 ft | 376 kts | 249° |
| 2026-04-19 01:05 | -23.14197 | 163.74617 | 35436 ft | 375 kts | 249° |
| 2026-04-19 01:05 | -23.15334 | 163.72076 | 35618 ft | 374 kts | 249° |
| 2026-04-19 01:05 | -23.16470 | 163.69535 | 35802 ft | 373 kts | 249° |
| 2026-04-19 01:06 | -23.17603 | 163.67000 | 35953 ft | 373 kts | 249° |
| 2026-04-19 01:06 | -23.18739 | 163.64455 | 35997 ft | 374 kts | 249° |
| 2026-04-19 01:06 | -23.21006 | 163.59376 | 35996 ft | 374 kts | 249° |
| 2026-04-19 01:07 | -23.23273 | 163.54290 | 35998 ft | 373 kts | 249° |
| 2026-04-19 01:07 | -23.25537 | 163.49213 | 35997 ft | 373 kts | 249° |
| 2026-04-19 01:08 | -23.27798 | 163.44136 | 36000 ft | 373 kts | 249° |
| 2026-04-19 01:08 | -23.30049 | 163.39057 | 36011 ft | 373 kts | 249° |
| 2026-04-19 01:09 | -23.32313 | 163.33964 | 36018 ft | 374 kts | 249° |
| 2026-04-19 01:09 | -23.34578 | 163.28867 | 36027 ft | 374 kts | 249° |
| 2026-04-19 01:10 | -23.36831 | 163.23773 | 36030 ft | 374 kts | 249° |
| 2026-04-19 01:10 | -23.39087 | 163.18680 | 36028 ft | 373 kts | 249° |
| 2026-04-19 01:11 | -23.41337 | 163.13589 | 36029 ft | 373 kts | 249° |
| 2026-04-19 01:11 | -23.43579 | 163.08512 | 36032 ft | 372 kts | 249° |
| 2026-04-19 01:12 | -23.45822 | 163.03428 | 36034 ft | 372 kts | 249° |
| 2026-04-19 01:12 | -23.48095 | 162.98361 | 36032 ft | 373 kts | 247° |
| 2026-04-19 01:13 | -23.50654 | 162.93430 | 36037 ft | 374 kts | 245° |
| 2026-04-19 01:13 | -23.53301 | 162.88551 | 36035 ft | 374 kts | 245° |
| 2026-04-19 01:14 | -23.55905 | 162.83657 | 36039 ft | 373 kts | 246° |
| 2026-04-19 01:14 | -23.58469 | 162.78748 | 36039 ft | 372 kts | 246° |
| 2026-04-19 01:15 | -23.61026 | 162.73839 | 36038 ft | 372 kts | 246° |
| 2026-04-19 01:15 | -23.63570 | 162.68960 | 36042 ft | 372 kts | 246° |
| 2026-04-19 01:16 | -23.66129 | 162.64059 | 36044 ft | 372 kts | 246° |
| 2026-04-19 01:16 | -23.68683 | 162.59156 | 36042 ft | 371 kts | 246° |
| 2026-04-19 01:17 | -23.71213 | 162.54285 | 36040 ft | 371 kts | 246° |
| 2026-04-19 01:17 | -23.73735 | 162.49432 | 36031 ft | 370 kts | 246° |
| 2026-04-19 01:18 | -23.76269 | 162.44545 | 36033 ft | 369 kts | 246° |
| 2026-04-19 01:18 | -23.78792 | 162.39688 | 36034 ft | 369 kts | 246° |
| 2026-04-19 01:19 | -23.81316 | 162.34822 | 36037 ft | 368 kts | 246° |
| 2026-04-19 01:19 | -23.83835 | 162.29950 | 36040 ft | 368 kts | 246° |
| 2026-04-19 01:20 | -23.86349 | 162.25081 | 36041 ft | 368 kts | 246° |
| 2026-04-19 01:20 | -23.88860 | 162.20222 | 36052 ft | 367 kts | 246° |
| 2026-04-19 01:21 | -23.91374 | 162.15362 | 36043 ft | 367 kts | 246° |
| 2026-04-19 01:21 | -23.93879 | 162.10502 | 36053 ft | 367 kts | 247° |
| 2026-04-19 01:22 | -23.96376 | 162.05649 | 36054 ft | 366 kts | 247° |
| 2026-04-19 01:22 | -23.98875 | 162.00799 | 36057 ft | 366 kts | 247° |
| 2026-04-19 01:23 | -24.01362 | 161.95961 | 36056 ft | 365 kts | 247° |
| 2026-04-19 01:23 | -24.03831 | 161.91147 | 36056 ft | 365 kts | 247° |
| 2026-04-19 01:24 | -24.06301 | 161.86328 | 36054 ft | 364 kts | 247° |
| 2026-04-19 01:24 | -24.08786 | 161.81496 | 36056 ft | 364 kts | 247° |
| 2026-04-19 01:25 | -24.11242 | 161.76693 | 36056 ft | 364 kts | 247° |
| 2026-04-19 01:25 | -24.13706 | 161.71858 | 36056 ft | 364 kts | 247° |
| 2026-04-19 01:26 | -24.16174 | 161.67019 | 36059 ft | 363 kts | 247° |
| 2026-04-19 01:26 | -24.18639 | 161.62188 | 36059 ft | 363 kts | 247° |
| 2026-04-19 01:27 | -24.21106 | 161.57362 | 36059 ft | 363 kts | 247° |
| 2026-04-19 01:27 | -24.23569 | 161.52542 | 36063 ft | 362 kts | 247° |
| 2026-04-19 01:28 | -24.26020 | 161.47717 | 36060 ft | 362 kts | 247° |
| 2026-04-19 01:28 | -24.28470 | 161.42901 | 36062 ft | 362 kts | 247° |
| 2026-04-19 01:29 | -24.30916 | 161.38085 | 36064 ft | 361 kts | 247° |
| 2026-04-19 01:29 | -24.33357 | 161.33277 | 36058 ft | 361 kts | 247° |
| 2026-04-19 01:30 | -24.35790 | 161.28470 | 36056 ft | 360 kts | 247° |
| 2026-04-19 01:30 | -24.38222 | 161.23668 | 36058 ft | 360 kts | 247° |
| 2026-04-19 01:31 | -24.40657 | 161.18868 | 36062 ft | 360 kts | 247° |
| 2026-04-19 01:31 | -24.43083 | 161.14058 | 36065 ft | 360 kts | 247° |
| 2026-04-19 01:32 | -24.45500 | 161.09257 | 36064 ft | 359 kts | 247° |
| 2026-04-19 01:32 | -24.47917 | 161.04468 | 36064 ft | 359 kts | 247° |
| 2026-04-19 01:33 | -24.50331 | 160.99671 | 36069 ft | 358 kts | 247° |
| 2026-04-19 01:33 | -24.52743 | 160.94884 | 36069 ft | 358 kts | 247° |
| 2026-04-19 01:34 | -24.55147 | 160.90095 | 36065 ft | 358 kts | 247° |
| 2026-04-19 01:34 | -24.57539 | 160.85343 | 36067 ft | 358 kts | 247° |
| 2026-04-19 01:35 | -24.59945 | 160.80558 | 36068 ft | 358 kts | 247° |
| 2026-04-19 01:35 | -24.62345 | 160.75770 | 36066 ft | 357 kts | 247° |
| 2026-04-19 01:36 | -24.64741 | 160.70984 | 36067 ft | 357 kts | 248° |
| 2026-04-19 01:36 | -24.67133 | 160.66191 | 36070 ft | 357 kts | 248° |
| 2026-04-19 01:37 | -24.69522 | 160.61404 | 36066 ft | 357 kts | 248° |
| 2026-04-19 01:37 | -24.71915 | 160.56625 | 36068 ft | 357 kts | 248° |
| 2026-04-19 01:38 | -24.74304 | 160.51840 | 36069 ft | 356 kts | 248° |
| 2026-04-19 01:38 | -24.76685 | 160.47060 | 36070 ft | 356 kts | 248° |
| 2026-04-19 01:39 | -24.79065 | 160.42285 | 36073 ft | 356 kts | 247° |
| 2026-04-19 01:39 | -24.81442 | 160.37507 | 36074 ft | 356 kts | 248° |
| 2026-04-19 01:40 | -24.83812 | 160.32725 | 36072 ft | 356 kts | 248° |
| 2026-04-19 01:40 | -24.86178 | 160.27947 | 36073 ft | 355 kts | 248° |
| 2026-04-19 01:41 | -24.88546 | 160.23162 | 36072 ft | 355 kts | 248° |
| 2026-04-19 01:41 | -24.90516 | 160.19194 | 36072 ft | 355 kts | 248° |
| 2026-04-19 01:42 | -24.93280 | 160.13606 | 36075 ft | 355 kts | 248° |
| 2026-04-19 01:43 | -24.96422 | 160.07238 | 36074 ft | 355 kts | 247° |
| 2026-04-19 01:43 | -24.98783 | 160.02458 | 36074 ft | 355 kts | 248° |
| 2026-04-19 01:44 | -25.01505 | 159.97881 | 36079 ft | 362 kts | 240° |
| 2026-04-19 01:44 | -25.04633 | 159.93532 | 36081 ft | 362 kts | 240° |
| 2026-04-19 01:45 | -25.07752 | 159.89183 | 36082 ft | 361 kts | 240° |
| 2026-04-19 01:45 | -25.10861 | 159.84830 | 36081 ft | 361 kts | 240° |
| 2026-04-19 01:46 | -25.13970 | 159.80481 | 36091 ft | 361 kts | 240° |
| 2026-04-19 01:46 | -25.17078 | 159.76135 | 36078 ft | 361 kts | 240° |
| 2026-04-19 01:47 | -25.20177 | 159.71785 | 36081 ft | 360 kts | 240° |
| 2026-04-19 01:47 | -25.23278 | 159.67430 | 36080 ft | 360 kts | 240° |
| 2026-04-19 01:48 | -25.26381 | 159.63079 | 36081 ft | 360 kts | 240° |
| 2026-04-19 01:48 | -25.29478 | 159.58726 | 36082 ft | 360 kts | 240° |
| 2026-04-19 01:49 | -25.32571 | 159.54367 | 36080 ft | 360 kts | 240° |
| 2026-04-19 01:49 | -25.35671 | 159.50009 | 36081 ft | 360 kts | 240° |
| 2026-04-19 01:50 | -25.38768 | 159.45648 | 36082 ft | 360 kts | 240° |
| 2026-04-19 01:50 | -25.41860 | 159.41290 | 36080 ft | 360 kts | 240° |
| 2026-04-19 01:51 | -25.44933 | 159.36952 | 36083 ft | 361 kts | 240° |
| 2026-04-19 01:51 | -25.48021 | 159.32576 | 36082 ft | 361 kts | 240° |
| 2026-04-19 01:52 | -25.51115 | 159.28197 | 36082 ft | 361 kts | 240° |
| 2026-04-19 01:52 | -25.54206 | 159.23824 | 36082 ft | 361 kts | 240° |
| 2026-04-19 01:53 | -25.57293 | 159.19443 | 36080 ft | 361 kts | 240° |
| 2026-04-19 01:53 | -25.60385 | 159.15064 | 36080 ft | 361 kts | 240° |
| 2026-04-19 01:54 | -25.63476 | 159.10678 | 36086 ft | 361 kts | 239° |
| 2026-04-19 01:54 | -25.66564 | 159.06284 | 36084 ft | 361 kts | 240° |
| 2026-04-19 01:55 | -25.69645 | 159.01884 | 36080 ft | 361 kts | 239° |
| 2026-04-19 01:55 | -25.72741 | 158.97482 | 36081 ft | 362 kts | 239° |
| 2026-04-19 01:56 | -25.75839 | 158.93073 | 36078 ft | 363 kts | 239° |
| 2026-04-19 01:56 | -25.78937 | 158.88653 | 36084 ft | 363 kts | 239° |
| 2026-04-19 01:57 | -25.82039 | 158.84224 | 36084 ft | 364 kts | 239° |
| 2026-04-19 01:57 | -25.85142 | 158.79788 | 36085 ft | 364 kts | 239° |
| 2026-04-19 01:58 | -25.88240 | 158.75347 | 36089 ft | 364 kts | 239° |
| 2026-04-19 01:58 | -25.91342 | 158.70903 | 36087 ft | 364 kts | 239° |
| 2026-04-19 01:59 | -25.94448 | 158.66447 | 36086 ft | 365 kts | 239° |
| 2026-04-19 01:59 | -25.97558 | 158.61983 | 36087 ft | 366 kts | 239° |
| 2026-04-19 02:00 | -26.00677 | 158.57510 | 36094 ft | 366 kts | 239° |
| 2026-04-19 02:00 | -26.03778 | 158.53056 | 36094 ft | 367 kts | 239° |
| 2026-04-19 02:01 | -26.06899 | 158.48562 | 36097 ft | 367 kts | 239° |
| 2026-04-19 02:01 | -26.10020 | 158.44062 | 36094 ft | 367 kts | 239° |
| 2026-04-19 02:02 | -26.13145 | 158.39558 | 36090 ft | 368 kts | 239° |
| 2026-04-19 02:02 | -26.16267 | 158.35048 | 36090 ft | 368 kts | 239° |
| 2026-04-19 02:03 | -26.19392 | 158.30525 | 36089 ft | 368 kts | 239° |
| 2026-04-19 02:03 | -26.22513 | 158.26006 | 36092 ft | 368 kts | 239° |
| 2026-04-19 02:04 | -26.25643 | 158.21481 | 36089 ft | 369 kts | 239° |
| 2026-04-19 02:04 | -26.28768 | 158.16948 | 36095 ft | 369 kts | 239° |
| 2026-04-19 02:05 | -26.31893 | 158.12410 | 36097 ft | 369 kts | 238° |
| 2026-04-19 02:05 | -26.35007 | 158.07902 | 36096 ft | 370 kts | 238° |
| 2026-04-19 02:06 | -26.38140 | 158.03353 | 36095 ft | 370 kts | 238° |
| 2026-04-19 02:06 | -26.41275 | 157.98789 | 36097 ft | 370 kts | 238° |
| 2026-04-19 02:07 | -26.44404 | 157.94218 | 36094 ft | 371 kts | 238° |
| 2026-04-19 02:07 | -26.47540 | 157.89642 | 36094 ft | 371 kts | 238° |
| 2026-04-19 02:08 | -26.50682 | 157.85059 | 36094 ft | 372 kts | 238° |
| 2026-04-19 02:08 | -26.53827 | 157.80474 | 36095 ft | 372 kts | 238° |
| 2026-04-19 02:09 | -26.56971 | 157.75874 | 36094 ft | 373 kts | 238° |
| 2026-04-19 02:09 | -26.60119 | 157.71268 | 36098 ft | 373 kts | 238° |
| 2026-04-19 02:10 | -26.63260 | 157.66663 | 36099 ft | 373 kts | 238° |
| 2026-04-19 02:10 | -26.66410 | 157.62044 | 36099 ft | 373 kts | 238° |
| 2026-04-19 02:11 | -26.69561 | 157.57418 | 36100 ft | 374 kts | 238° |
| 2026-04-19 02:11 | -26.72711 | 157.52791 | 36097 ft | 374 kts | 238° |
| 2026-04-19 02:12 | -26.75861 | 157.48149 | 36099 ft | 374 kts | 238° |
| 2026-04-19 02:12 | -26.79008 | 157.43503 | 36099 ft | 375 kts | 238° |
| 2026-04-19 02:13 | -26.82158 | 157.38858 | 36101 ft | 375 kts | 238° |
| 2026-04-19 02:13 | -26.85317 | 157.34205 | 36104 ft | 375 kts | 238° |
| 2026-04-19 02:14 | -26.88472 | 157.29540 | 36102 ft | 376 kts | 238° |
| 2026-04-19 02:14 | -26.91610 | 157.24895 | 36103 ft | 376 kts | 238° |
| 2026-04-19 02:15 | -26.94768 | 157.20220 | 36109 ft | 376 kts | 238° |
| 2026-04-19 02:15 | -26.97929 | 157.15536 | 36099 ft | 376 kts | 238° |
| 2026-04-19 02:16 | -27.01085 | 157.10851 | 36104 ft | 377 kts | 238° |
| 2026-04-19 02:16 | -27.04242 | 157.06159 | 36107 ft | 377 kts | 238° |
| 2026-04-19 02:17 | -27.07404 | 157.01462 | 36108 ft | 377 kts | 238° |
| 2026-04-19 02:17 | -27.10558 | 156.96766 | 36107 ft | 377 kts | 238° |
| 2026-04-19 02:18 | -27.13721 | 156.92060 | 36108 ft | 378 kts | 238° |
| 2026-04-19 02:18 | -27.16876 | 156.87342 | 36107 ft | 378 kts | 238° |
| 2026-04-19 02:19 | -27.20026 | 156.82620 | 36109 ft | 378 kts | 238° |
| 2026-04-19 02:19 | -27.23183 | 156.77901 | 36112 ft | 378 kts | 237° |
| 2026-04-19 02:20 | -27.27929 | 156.70822 | 36112 ft | 378 kts | 237° |
| 2026-04-19 02:20 | -27.30557 | 156.66889 | 36110 ft | 378 kts | 237° |
| 2026-04-19 02:21 | -27.34240 | 156.61356 | 36111 ft | 378 kts | 238° |
| 2026-04-19 02:21 | -27.37395 | 156.56607 | 36115 ft | 379 kts | 237° |
| 2026-04-19 02:22 | -27.40554 | 156.51862 | 36115 ft | 379 kts | 237° |
| 2026-04-19 02:22 | -27.43708 | 156.47111 | 36120 ft | 379 kts | 237° |
| 2026-04-19 02:23 | -27.46864 | 156.42357 | 36118 ft | 379 kts | 237° |
| 2026-04-19 02:23 | -27.50023 | 156.37602 | 36117 ft | 379 kts | 237° |
| 2026-04-19 02:24 | -27.53174 | 156.32832 | 36117 ft | 379 kts | 237° |
| 2026-04-19 02:24 | -27.56321 | 156.28062 | 36117 ft | 379 kts | 237° |
| 2026-04-19 02:25 | -27.59368 | 156.23450 | 36118 ft | 380 kts | 237° |
| 2026-04-19 02:25 | -27.61992 | 156.19478 | 36117 ft | 380 kts | 237° |
| 2026-04-19 02:26 | -27.65152 | 156.14698 | 36121 ft | 380 kts | 237° |
| 2026-04-19 02:26 | -27.68304 | 156.09918 | 36122 ft | 380 kts | 237° |
| 2026-04-19 02:27 | -27.71455 | 156.05133 | 36122 ft | 380 kts | 237° |
| 2026-04-19 02:27 | -27.74530 | 156.00448 | 36132 ft | 380 kts | 237° |
| 2026-04-19 02:28 | -27.76103 | 155.98049 | 35951 ft | 381 kts | 237° |
| 2026-04-19 02:28 | -27.77676 | 155.95653 | 35586 ft | 379 kts | 237° |
| 2026-04-19 02:28 | -27.79040 | 155.93130 | 35229 ft | 375 kts | 248° |
| 2026-04-19 02:28 | -27.79874 | 155.90350 | 34888 ft | 375 kts | 258° |
| 2026-04-19 02:29 | -27.80153 | 155.87414 | 34534 ft | 379 kts | 268° |
| 2026-04-19 02:29 | -27.79868 | 155.84438 | 34195 ft | 384 kts | 275° |
| 2026-04-19 02:29 | -27.79419 | 155.81492 | 33813 ft | 386 kts | 275° |
| 2026-04-19 02:29 | -27.78964 | 155.78454 | 33421 ft | 388 kts | 275° |
| 2026-04-19 02:30 | -27.78521 | 155.75477 | 33025 ft | 390 kts | 275° |
| 2026-04-19 02:30 | -27.78063 | 155.72403 | 32624 ft | 393 kts | 275° |
| 2026-04-19 02:30 | -27.77612 | 155.69394 | 32251 ft | 395 kts | 275° |
| 2026-04-19 02:30 | -27.77148 | 155.66332 | 31871 ft | 397 kts | 275° |
| 2026-04-19 02:31 | -27.76680 | 155.63243 | 31499 ft | 400 kts | 275° |
| 2026-04-19 02:31 | -27.76210 | 155.60139 | 31134 ft | 402 kts | 275° |
| 2026-04-19 02:31 | -27.75735 | 155.57012 | 30770 ft | 405 kts | 275° |
| 2026-04-19 02:31 | -27.75256 | 155.53869 | 30411 ft | 407 kts | 275° |
| 2026-04-19 02:32 | -27.74776 | 155.50709 | 30041 ft | 410 kts | 275° |
| 2026-04-19 02:32 | -27.74292 | 155.47530 | 29622 ft | 412 kts | 275° |
| 2026-04-19 02:32 | -27.73802 | 155.44329 | 29207 ft | 415 kts | 275° |
| 2026-04-19 02:32 | -27.73311 | 155.41114 | 28799 ft | 417 kts | 275° |
| 2026-04-19 02:33 | -27.72819 | 155.37887 | 28396 ft | 419 kts | 275° |
| 2026-04-19 02:33 | -27.72322 | 155.34637 | 28001 ft | 421 kts | 275° |
| 2026-04-19 02:33 | -27.71821 | 155.31375 | 27610 ft | 423 kts | 276° |
| 2026-04-19 02:33 | -27.71315 | 155.28100 | 27225 ft | 425 kts | 276° |
| 2026-04-19 02:34 | -27.70811 | 155.24808 | 26844 ft | 427 kts | 276° |
| 2026-04-19 02:34 | -27.70302 | 155.21503 | 26474 ft | 429 kts | 276° |
| 2026-04-19 02:34 | -27.69791 | 155.18180 | 26102 ft | 431 kts | 276° |
| 2026-04-19 02:34 | -27.69277 | 155.14844 | 25739 ft | 432 kts | 276° |
| 2026-04-19 02:35 | -27.68759 | 155.11490 | 25374 ft | 434 kts | 276° |
| 2026-04-19 02:35 | -27.68234 | 155.08127 | 25025 ft | 436 kts | 276° |
| 2026-04-19 02:35 | -27.67705 | 155.04751 | 24674 ft | 438 kts | 276° |
| 2026-04-19 02:35 | -27.67171 | 155.01362 | 24333 ft | 434 kts | 276° |
| 2026-04-19 02:36 | -27.66654 | 154.98100 | 23980 ft | 422 kts | 276° |
| 2026-04-19 02:36 | -27.66139 | 154.94840 | 23630 ft | 411 kts | 276° |
| 2026-04-19 02:36 | -27.65654 | 154.91739 | 23223 ft | 402 kts | 276° |
| 2026-04-19 02:36 | -27.65175 | 154.88678 | 22824 ft | 392 kts | 276° |
| 2026-04-19 02:37 | -27.64710 | 154.85674 | 22427 ft | 384 kts | 276° |
| 2026-04-19 02:37 | -27.64256 | 154.82737 | 22035 ft | 377 kts | 276° |
| 2026-04-19 02:37 | -27.63809 | 154.79854 | 21648 ft | 371 kts | 276° |
| 2026-04-19 02:37 | -27.63365 | 154.77003 | 21260 ft | 366 kts | 276° |
| 2026-04-19 02:38 | -27.62921 | 154.74196 | 20889 ft | 361 kts | 276° |
| 2026-04-19 02:38 | -27.62481 | 154.71422 | 20518 ft | 357 kts | 276° |
| 2026-04-19 02:38 | -27.62047 | 154.68691 | 20145 ft | 352 kts | 276° |
| 2026-04-19 02:38 | -27.61619 | 154.65994 | 19789 ft | 347 kts | 276° |
| 2026-04-19 02:39 | -27.61198 | 154.63339 | 19436 ft | 342 kts | 276° |
| 2026-04-19 02:39 | -27.60779 | 154.60716 | 19090 ft | 337 kts | 276° |
| 2026-04-19 02:39 | -27.60365 | 154.58135 | 18728 ft | 333 kts | 276° |
| 2026-04-19 02:39 | -27.59956 | 154.55580 | 18384 ft | 329 kts | 276° |
| 2026-04-19 02:40 | -27.59554 | 154.53060 | 17984 ft | 325 kts | 276° |
| 2026-04-19 02:40 | -27.59158 | 154.50566 | 17589 ft | 321 kts | 276° |
| 2026-04-19 02:40 | -27.58765 | 154.48098 | 17199 ft | 318 kts | 276° |
| 2026-04-19 02:40 | -27.58376 | 154.45658 | 16813 ft | 315 kts | 276° |
| 2026-04-19 02:41 | -27.57991 | 154.43239 | 16427 ft | 312 kts | 276° |
| 2026-04-19 02:41 | -27.57610 | 154.40841 | 16058 ft | 310 kts | 276° |
| 2026-04-19 02:41 | -27.57229 | 154.38462 | 15692 ft | 307 kts | 276° |
| 2026-04-19 02:41 | -27.56848 | 154.36105 | 15324 ft | 305 kts | 276° |
| 2026-04-19 02:42 | -27.56467 | 154.33762 | 14962 ft | 303 kts | 276° |
| 2026-04-19 02:42 | -27.56089 | 154.31436 | 14604 ft | 301 kts | 276° |
| 2026-04-19 02:42 | -27.55715 | 154.29121 | 14250 ft | 299 kts | 276° |
| 2026-04-19 02:42 | -27.55349 | 154.26838 | 14104 ft | 294 kts | 276° |
| 2026-04-19 02:43 | -27.54987 | 154.24564 | 14117 ft | 296 kts | 276° |
| 2026-04-19 02:43 | -27.54621 | 154.22282 | 14117 ft | 296 kts | 276° |
| 2026-04-19 02:43 | -27.54250 | 154.20000 | 14119 ft | 296 kts | 276° |
| 2026-04-19 02:43 | -27.53876 | 154.17716 | 14118 ft | 296 kts | 276° |
| 2026-04-19 02:44 | -27.53501 | 154.15434 | 14119 ft | 296 kts | 276° |
| 2026-04-19 02:44 | -27.53130 | 154.13149 | 14121 ft | 296 kts | 276° |
| 2026-04-19 02:44 | -27.52760 | 154.10866 | 14118 ft | 296 kts | 276° |
| 2026-04-19 02:44 | -27.52390 | 154.08587 | 13943 ft | 296 kts | 276° |
| 2026-04-19 02:45 | -27.52017 | 154.06308 | 13735 ft | 295 kts | 276° |
| 2026-04-19 02:45 | -27.51645 | 154.04042 | 13527 ft | 294 kts | 276° |
| 2026-04-19 02:45 | -27.51276 | 154.01780 | 13315 ft | 293 kts | 276° |
| 2026-04-19 02:45 | -27.50909 | 153.99524 | 13114 ft | 293 kts | 276° |
| 2026-04-19 02:46 | -27.50542 | 153.97269 | 12896 ft | 292 kts | 276° |
| 2026-04-19 02:46 | -27.50175 | 153.95021 | 12704 ft | 291 kts | 276° |
| 2026-04-19 02:46 | -27.49931 | 153.93539 | 12571 ft | 290 kts | 276° |
| 2026-04-19 02:46 | -27.49439 | 153.90551 | 12297 ft | 290 kts | 276° |
| 2026-04-19 02:47 | -27.49073 | 153.88322 | 12095 ft | 289 kts | 276° |
| 2026-04-19 02:47 | -27.48709 | 153.86093 | 11896 ft | 289 kts | 277° |
| 2026-04-19 02:47 | -27.48342 | 153.83870 | 11701 ft | 288 kts | 277° |
| 2026-04-19 02:47 | -27.47974 | 153.81652 | 11500 ft | 288 kts | 277° |
| 2026-04-19 02:48 | -27.47607 | 153.79439 | 11296 ft | 287 kts | 277° |
| 2026-04-19 02:48 | -27.47242 | 153.77226 | 11071 ft | 287 kts | 277° |
| 2026-04-19 02:48 | -27.46959 | 153.75013 | 10856 ft | 284 kts | 269° |
| 2026-04-19 02:48 | -27.47012 | 153.72811 | 10645 ft | 280 kts | 259° |
| 2026-04-19 02:49 | -27.47399 | 153.70670 | 10432 ft | 278 kts | 252° |
| 2026-04-19 02:49 | -27.47904 | 153.68571 | 10219 ft | 278 kts | 252° |
| 2026-04-19 02:49 | -27.48396 | 153.66470 | 10007 ft | 277 kts | 252° |
| 2026-04-19 02:49 | -27.48877 | 153.64400 | 9775 ft | 276 kts | 252° |
| 2026-04-19 02:50 | -27.49361 | 153.62307 | 9542 ft | 276 kts | 253° |
| 2026-04-19 02:50 | -27.49843 | 153.60220 | 9315 ft | 275 kts | 253° |
| 2026-04-19 02:50 | -27.50327 | 153.58141 | 9078 ft | 274 kts | 252° |
| 2026-04-19 02:51 | -27.51296 | 153.53994 | 8626 ft | 273 kts | 253° |
| 2026-04-19 02:51 | -27.51775 | 153.51926 | 8398 ft | 272 kts | 253° |
| 2026-04-19 02:51 | -27.52253 | 153.49863 | 8175 ft | 272 kts | 253° |
| 2026-04-19 02:51 | -27.52731 | 153.47807 | 7951 ft | 271 kts | 252° |
| 2026-04-19 02:52 | -27.53220 | 153.45760 | 7727 ft | 269 kts | 249° |
| 2026-04-19 02:52 | -27.53960 | 153.43836 | 7509 ft | 267 kts | 243° |
| 2026-04-19 02:52 | -27.54761 | 153.41950 | 7288 ft | 267 kts | 243° |
| 2026-04-19 02:52 | -27.55556 | 153.40063 | 7075 ft | 266 kts | 243° |
| 2026-04-19 02:53 | -27.56347 | 153.38180 | 6856 ft | 265 kts | 243° |
| 2026-04-19 02:53 | -27.57132 | 153.36302 | 6642 ft | 265 kts | 243° |
| 2026-04-19 02:53 | -27.57914 | 153.34433 | 6419 ft | 264 kts | 243° |
| 2026-04-19 02:53 | -27.58698 | 153.32565 | 6193 ft | 263 kts | 243° |
| 2026-04-19 02:54 | -27.59481 | 153.30701 | 5966 ft | 263 kts | 244° |
| 2026-04-19 02:54 | -27.60091 | 153.28758 | 5738 ft | 264 kts | 252° |
| 2026-04-19 02:54 | -27.60592 | 153.26773 | 5513 ft | 263 kts | 253° |
| 2026-04-19 02:54 | -27.61097 | 153.24782 | 5287 ft | 263 kts | 253° |
| 2026-04-19 02:55 | -27.61599 | 153.22801 | 5067 ft | 263 kts | 253° |
| 2026-04-19 02:55 | -27.62202 | 153.20851 | 4842 ft | 263 kts | 245° |
| 2026-04-19 02:55 | -27.62953 | 153.18971 | 4605 ft | 263 kts | 245° |
| 2026-04-19 02:55 | -27.63700 | 153.17084 | 4376 ft | 263 kts | 246° |
| 2026-04-19 02:56 | -27.64444 | 153.15196 | 4149 ft | 263 kts | 245° |
| 2026-04-19 02:56 | -27.65187 | 153.13316 | 3925 ft | 263 kts | 246° |
| 2026-04-19 02:56 | -27.65933 | 153.11427 | 3702 ft | 263 kts | 246° |
| 2026-04-19 02:56 | -27.66678 | 153.09545 | 3532 ft | 263 kts | 246° |
| 2026-04-19 02:57 | -27.67244 | 153.07599 | 3355 ft | 259 kts | 261° |
| 2026-04-19 02:57 | -27.67351 | 153.05604 | 3175 ft | 251 kts | 269° |
| 2026-04-19 02:57 | -27.67248 | 153.03682 | 3045 ft | 245 kts | 283° |
| 2026-04-19 02:57 | -27.66554 | 153.01857 | 2992 ft | 260 kts | 305° |
| 2026-04-19 02:58 | -27.65264 | 153.00426 | 2991 ft | 263 kts | 328° |
| 2026-04-19 02:58 | -27.63579 | 152.99661 | 2993 ft | 263 kts | 351° |
| 2026-04-19 02:58 | -27.61794 | 152.99685 | 2989 ft | 251 kts | 13° |
| 2026-04-19 02:58 | -27.60253 | 153.00373 | 3019 ft | 229 kts | 27° |
| 2026-04-19 02:59 | -27.58863 | 153.01173 | 3010 ft | 219 kts | 27° |
| 2026-04-19 02:59 | -27.57617 | 153.01886 | 3017 ft | 197 kts | 27° |
| 2026-04-19 02:59 | -27.56836 | 153.02333 | 2993 ft | 184 kts | 27° |
| 2026-04-19 02:59 | -27.55388 | 153.03163 | 2994 ft | 170 kts | 27° |
| 2026-04-19 03:00 | -27.54346 | 153.03761 | 2964 ft | 168 kts | 27° |
| 2026-04-19 03:00 | -27.53316 | 153.04352 | 2836 ft | 166 kts | 27° |
| 2026-04-19 03:00 | -27.52294 | 153.04938 | 2637 ft | 161 kts | 27° |
| 2026-04-19 03:00 | -27.51322 | 153.05496 | 2418 ft | 154 kts | 27° |
| 2026-04-19 03:01 | -27.50378 | 153.06036 | 2222 ft | 151 kts | 27° |
| 2026-04-19 03:01 | -27.49442 | 153.06573 | 2034 ft | 150 kts | 27° |
| 2026-04-19 03:01 | -27.48514 | 153.07105 | 1834 ft | 149 kts | 27° |
| 2026-04-19 03:01 | -27.47590 | 153.07635 | 1631 ft | 149 kts | 27° |
| 2026-04-19 03:02 | -27.46674 | 153.08159 | 1437 ft | 148 kts | 28° |
| 2026-04-19 03:02 | -27.45773 | 153.08676 | 1253 ft | 148 kts | 27° |
| 2026-04-19 03:02 | -27.44857 | 153.09201 | 1054 ft | 147 kts | 28° |
| 2026-04-19 03:02 | -27.44258 | 153.09546 | 919 ft | 146 kts | 28° |
| 2026-04-19 03:03 | -27.43041 | 153.10238 | 668 ft | 145 kts | 28° |
| 2026-04-19 03:03 | -27.42148 | 153.10750 | 468 ft | 144 kts | 29° |
| 2026-04-19 03:03 | -27.41256 | 153.11244 | 264 ft | 143 kts | 30° |
| 2026-04-19 03:03 | -27.40380 | 153.11762 | 83 ft | 141 kts | 30° |
| 2026-04-19 03:04 | -27.39568 | 153.12234 | 20 ft | 113 kts | 27° |
| 2026-04-19 03:04 | -27.39018 | 153.12545 | 19 ft | 63 kts | 26° |
| 2026-04-19 03:04 | -27.38683 | 153.12662 | 20 ft | 36 kts | 1° |
| 2026-04-19 03:04 | -27.38587 | 153.12655 | 20 ft | 0 kts | 358° |
| 2026-04-19 03:05 | -27.38585 | 153.12655 | 20 ft | 1 kts | 358° |
| 2026-04-19 03:06 | -27.38578 | 153.12655 | 20 ft | 2 kts | 358° |